Time;durP1;ratioP1;P1;durP2;ratioP2;P2;SDS_P1;SDS_P2;PMS_P1;PMS_P2;Temp;Humidity;BMP_temperature;BMP_pressure;BME280_temperature;BME280_humidity;BME280_pressure;Samples;Min_cycle;Max_cycle;Signal;HPM_P1;HPM_P2
2022/08/05 00:01:21;;;;;;;8.43;2.78;;;;;;;;;;5053404;27;95409;-76
2022/08/05 00:03:54;;;;;;;9.32;3.03;;;;;;;;;;5067392;27;96691;-76
2022/08/05 00:06:23;;;;;;;8.02;2.60;;;;;;;;;;5060581;27;97619;-76
2022/08/05 00:08:59;;;;;;;9.93;2.63;;;;;;;;;;5052802;27;95244;-76
2022/08/05 00:11:25;;;;;;;7.93;2.80;;;;;;;;;;5053070;27;96805;-76
2022/08/05 00:14:00;;;;;;;7.95;2.50;;;;;;;;;;5067918;27;97299;-75
2022/08/05 00:16:27;;;;;;;7.88;2.78;;;;;;;;;;5075322;27;95559;-75
2022/08/05 00:19:02;;;;;;;9.75;2.53;;;;;;;;;;5053730;27;97413;-76
2022/08/05 00:21:28;;;;;;;7.63;2.60;;;;;;;;;;5054162;27;95196;-76
2022/08/05 00:23:56;;;;;;;6.40;2.78;;;;;;;;;;5071466;27;95276;-76
2022/08/05 00:26:36;;;;;;;5.85;2.67;;;;;;;;;;5072285;27;96796;-76
2022/08/05 00:29:03;;;;;;;11.48;2.72;;;;;;;;;;5068239;27;95457;-75
2022/08/05 00:31:30;;;;;;;6.35;2.45;;;;;;;;;;5069050;27;97115;-76
2022/08/05 00:34:16;;;;;;;13.48;2.92;;;;;;;;;;5070818;27;99177;-76
2022/08/05 00:37:02;;;;;;;9.98;2.72;;;;;;;;;;5075037;27;95311;-76
2022/08/05 00:39:41;;;;;;;9.18;2.40;;;;;;;;;;5072041;27;98231;-75
2022/08/05 00:42:30;;;;;;;5.63;2.28;;;;;;;;;;5072012;27;95272;-75
2022/08/05 00:44:58;;;;;;;10.32;3.15;;;;;;;;;;5066794;27;97106;-74
2022/08/05 00:47:24;;;;;;;9.13;2.50;;;;;;;;;;5071771;27;97352;-75
2022/08/05 00:49:50;;;;;;;7.80;2.88;;;;;;;;;;5070391;27;96221;-75
2022/08/05 00:52:18;;;;;;;7.80;2.90;;;;;;;;;;5072068;27;96773;-75
2022/08/05 00:54:54;;;;;;;7.95;2.97;;;;;;;;;;5067781;27;97365;-75
2022/08/05 00:57:21;;;;;;;12.18;3.38;;;;;;;;;;5074997;27;95457;-75
2022/08/05 00:59:50;;;;;;;7.43;2.88;;;;;;;;;;5077709;27;95490;-75
2022/08/05 01:02:17;;;;;;;9.63;3.53;;;;;;;;;;5075562;27;95366;-75
2022/08/05 01:04:43;;;;;;;7.70;2.65;;;;;;;;;;5073441;27;96995;-75
2022/08/05 01:07:15;;;;;;;10.90;3.10;;;;;;;;;;5073199;27;97385;-76
2022/08/05 01:09:43;;;;;;;11.95;3.28;;;;;;;;;;5056740;27;95253;-75
2022/08/05 01:12:11;;;;;;;8.55;2.95;;;;;;;;;;5055179;27;96768;-75
2022/08/05 01:14:50;;;;;;;7.47;2.53;;;;;;;;;;5067189;27;97308;-76
2022/08/05 01:17:26;;;;;;;10.75;2.70;;;;;;;;;;5075290;27;95367;-76
2022/08/05 01:19:58;;;;;;;7.85;2.65;;;;;;;;;;5073922;27;96775;-76
2022/08/05 01:22:35;;;;;;;8.30;2.80;;;;;;;;;;5077409;27;97197;-75
2022/08/05 01:25:15;;;;;;;12.23;2.88;;;;;;;;;;5074099;27;97125;-76
2022/08/05 01:28:00;;;;;;;10.38;3.00;;;;;;;;;;5075049;27;97223;-75
2022/08/05 01:30:27;;;;;;;9.82;3.17;;;;;;;;;;5073779;27;95853;-76
2022/08/05 01:33:02;;;;;;;7.63;2.92;;;;;;;;;;5075452;27;96996;-75
2022/08/05 01:35:30;;;;;;;11.45;2.47;;;;;;;;;;5073659;27;96187;-76
2022/08/05 01:38:17;;;;;;;7.53;2.75;;;;;;;;;;5075274;27;94992;-76
2022/08/05 01:40:58;;;;;;;8.85;2.47;;;;;;;;;;5073423;27;96897;-76
2022/08/05 01:43:27;;;;;;;8.32;2.60;;;;;;;;;;5075003;27;97288;-76
2022/08/05 01:45:54;;;;;;;12.63;2.90;;;;;;;;;;5075032;27;96289;-75
2022/08/05 01:48:23;;;;;;;7.88;2.40;;;;;;;;;;5074315;27;97742;-76
2022/08/05 01:50:50;;;;;;;6.72;2.50;;;;;;;;;;5074358;27;95368;-76
2022/08/05 01:53:20;;;;;;;10.63;2.72;;;;;;;;;;5072937;27;96877;-76
2022/08/05 01:56:07;;;;;;;7.68;2.13;;;;;;;;;;5069969;27;100073;-75
2022/08/05 01:58:35;;;;;;;8.82;3.10;;;;;;;;;;5055552;27;95342;-75
2022/08/05 02:01:12;;;;;;;6.80;2.53;;;;;;;;;;5074725;27;96294;-76
2022/08/05 02:03:42;;;;;;;6.22;2.42;;;;;;;;;;5074200;27;97628;-76
2022/08/05 02:06:09;;;;;;;9.02;2.17;;;;;;;;;;5073667;27;95122;-76
2022/08/05 02:08:56;;;;;;;7.13;2.63;;;;;;;;;;5076481;27;97123;-76
2022/08/05 02:11:25;;;;;;;6.43;2.30;;;;;;;;;;5074551;27;95405;-75
2022/08/05 02:14:06;;;;;;;8.07;2.20;;;;;;;;;;5074428;27;96049;-75
2022/08/05 02:16:38;;;;;;;12.40;2.25;;;;;;;;;;5072048;27;96308;-75
2022/08/05 02:19:08;;;;;;;5.18;2.40;;;;;;;;;;5074880;27;94945;-75
2022/08/05 02:21:38;;;;;;;9.80;2.40;;;;;;;;;;5074041;27;96833;-76
2022/08/05 02:24:16;;;;;;;8.27;2.65;;;;;;;;;;5072340;27;98150;-75
2022/08/05 02:26:49;;;;;;;11.07;2.60;;;;;;;;;;5073753;27;95219;-76
2022/08/05 02:29:21;;;;;;;9.10;2.60;;;;;;;;;;5074314;27;96831;-75
2022/08/05 02:31:52;;;;;;;6.82;2.25;;;;;;;;;;5076340;27;97383;-76
2022/08/05 02:34:22;;;;;;;8.43;2.40;;;;;;;;;;5074899;27;96565;-76
2022/08/05 02:36:50;;;;;;;5.63;1.95;;;;;;;;;;5071997;27;96172;-75
2022/08/05 02:39:19;;;;;;;7.18;2.53;;;;;;;;;;5074475;27;95185;-76
2022/08/05 02:41:47;;;;;;;9.75;2.50;;;;;;;;;;5073032;27;96790;-75
2022/08/05 02:44:27;;;;;;;5.85;2.20;;;;;;;;;;5053283;27;97394;-76
2022/08/05 02:46:55;;;;;;;6.15;2.55;;;;;;;;;;5070204;27;95169;-75
2022/08/05 02:49:27;;;;;;;8.07;2.67;;;;;;;;;;5074599;27;97262;-76
2022/08/05 02:52:04;;;;;;;7.88;2.42;;;;;;;;;;5073861;27;97714;-76
2022/08/05 02:54:32;;;;;;;6.90;2.22;;;;;;;;;;5073996;27;96830;-75
2022/08/05 02:57:02;;;;;;;7.70;2.60;;;;;;;;;;5072745;27;97394;-75
2022/08/05 02:59:31;;;;;;;10.57;2.90;;;;;;;;;;5073865;27;95396;-75
2022/08/05 03:02:17;;;;;;;9.65;2.65;;;;;;;;;;5067431;27;97299;-76
2022/08/05 03:04:47;;;;;;;8.50;2.80;;;;;;;;;;5071939;27;98582;-75
2022/08/05 03:07:18;;;;;;;5.47;2.20;;;;;;;;;;5073537;27;95719;-74
2022/08/05 03:10:06;;;;;;;8.13;2.78;;;;;;;;;;5073796;27;98269;-75
2022/08/05 03:12:33;;;;;;;10.32;2.42;;;;;;;;;;5070858;27;97628;-75
2022/08/05 03:14:59;;;;;;;9.75;3.00;;;;;;;;;;5077178;27;95408;-75
2022/08/05 03:17:27;;;;;;;7.75;2.80;;;;;;;;;;5069803;27;97323;-75
2022/08/05 03:19:54;;;;;;;8.93;3.05;;;;;;;;;;5072916;27;95442;-75
2022/08/05 03:22:24;;;;;;;9.40;2.70;;;;;;;;;;5072065;27;97012;-76
2022/08/05 03:24:58;;;;;;;9.75;2.88;;;;;;;;;;5073205;27;97534;-76
2022/08/05 03:27:44;;;;;;;10.07;2.50;;;;;;;;;;5069580;27;96948;-75
2022/08/05 03:30:27;;;;;;;5.95;2.70;;;;;;;;;;5070521;27;97957;-75
2022/08/05 03:32:59;;;;;;;12.18;2.90;;;;;;;;;;5064738;27;100939;-76
2022/08/05 03:35:28;;;;;;;9.45;2.40;;;;;;;;;;5072740;27;95510;-83
2022/08/05 03:37:59;;;;;;;9.18;2.88;;;;;;;;;;5075927;27;96695;-81
2022/08/05 03:40:25;;;;;;;7.95;3.03;;;;;;;;;;5072590;27;95181;-79
2022/08/05 03:42:58;;;;;;;9.75;2.92;;;;;;;;;;5069304;27;97023;-76
2022/08/05 03:45:40;;;;;;;12.00;2.90;;;;;;;;;;5072558;27;97547;-75
2022/08/05 03:48:23;;;;;;;9.00;2.80;;;;;;;;;;5069609;27;95280;-80
2022/08/05 03:51:07;;;;;;;8.30;2.50;;;;;;;;;;5061758;27;97084;-76
2022/08/05 03:53:53;;;;;;;8.00;2.80;;;;;;;;;;5067601;27;101590;-75
2022/08/05 03:56:44;;;;;;;11.48;3.60;;;;;;;;;;5067426;27;96683;-76
2022/08/05 03:59:20;;;;;;;6.38;3.08;;;;;;;;;;5069256;27;96926;-75
2022/08/05 04:02:17;;;;;;;11.90;3.03;;;;;;;;;;5067200;27;96790;-76
2022/08/05 04:05:04;;;;;;;9.38;2.95;;;;;;;;;;5073286;27;96899;-75
2022/08/05 04:07:35;;;;;;;8.00;2.95;;;;;;;;;;5063158;27;96574;-76
2022/08/05 04:10:22;;;;;;;9.32;2.80;;;;;;;;;;5071773;27;95617;-75
2022/08/05 04:12:55;;;;;;;10.75;3.05;;;;;;;;;;5070639;27;97879;-76
2022/08/05 04:15:24;;;;;;;31.60;4.68;;;;;;;;;;5071481;27;97319;-76
2022/08/05 04:17:53;;;;;;;10.98;3.40;;;;;;;;;;5066933;27;95222;-76
2022/08/05 04:20:23;;;;;;;8.38;2.78;;;;;;;;;;5052784;27;97568;-76
2022/08/05 04:22:49;;;;;;;9.80;3.40;;;;;;;;;;5050913;27;97847;-75
2022/08/05 04:25:15;;;;;;;7.50;2.95;;;;;;;;;;5055239;27;95352;-75
2022/08/05 04:27:43;;;;;;;7.60;2.78;;;;;;;;;;5050796;27;97207;-76
2022/08/05 04:30:23;;;;;;;10.15;2.75;;;;;;;;;;5051980;27;95210;-75
2022/08/05 11:56:44;;;;;;;1.90;0.80;;;;;;;;;;5066438;27;96192;-76
2022/08/05 11:59:21;;;;;;;1.30;0.63;;;;;;;;;;5046022;27;97322;-87
2022/08/05 12:01:52;;;;;;;2.92;0.90;;;;;;;;;;5047853;27;96852;-78
2022/08/05 12:04:19;;;;;;;4.72;0.82;;;;;;;;;;5038129;27;96689;-78
2022/08/05 12:06:48;;;;;;;5.25;0.80;;;;;;;;;;5030842;27;97569;-78
2022/08/05 12:09:19;;;;;;;2.20;0.75;;;;;;;;;;5045039;27;97178;-78
2022/08/05 12:12:04;;;;;;;3.03;0.70;;;;;;;;;;5046081;27;96111;-77
2022/08/05 12:14:36;;;;;;;3.13;0.82;;;;;;;;;;5046579;27;97415;-79
2022/08/05 12:17:09;;;;;;;0.95;0.70;;;;;;;;;;5051745;27;95412;-77
2022/08/05 12:19:56;;;;;;;1.23;0.77;;;;;;;;;;5046110;27;99194;-78
2022/08/05 12:22:42;;;;;;;1.17;0.60;;;;;;;;;;5037876;27;95238;-77
2022/08/05 12:25:11;;;;;;;5.45;0.80;;;;;;;;;;5048023;27;96993;-77
2022/08/05 12:27:41;;;;;;;2.38;0.95;;;;;;;;;;5046553;27;97401;-77
2022/08/05 12:30:21;;;;;;;3.75;0.77;;;;;;;;;;5048041;27;95289;-77
2022/08/05 12:32:57;;;;;;;4.07;0.80;;;;;;;;;;5040624;27;97119;-77
2022/08/05 12:35:32;;;;;;;4.85;0.93;;;;;;;;;;5044902;27;97547;-77
2022/08/05 12:38:06;;;;;;;2.75;0.90;;;;;;;;;;5045947;27;96397;-77
2022/08/05 12:40:35;;;;;;;2.25;0.60;;;;;;;;;;5052446;27;96703;-77
2022/08/05 12:43:05;;;;;;;4.13;0.90;;;;;;;;;;5048949;27;95355;-77
2022/08/05 12:45:31;;;;;;;5.47;0.98;;;;;;;;;;5046115;27;96803;-77
2022/08/05 12:48:19;;;;;;;1.48;0.80;;;;;;;;;;5043929;27;97383;-78
2022/08/05 12:51:12;;;;;;;4.03;0.98;;;;;;;;;;5040523;27;95416;-78
2022/08/05 12:54:02;;;;;;;2.95;1.00;;;;;;;;;;5036411;27;98718;-78
2022/08/05 12:56:42;;;;;;;2.10;0.75;;;;;;;;;;5045222;27;97689;-78
2022/08/05 12:59:15;;;;;;;5.28;1.00;;;;;;;;;;5047681;27;95301;-78
2022/08/05 13:01:57;;;;;;;4.85;0.90;;;;;;;;;;5034829;27;96727;-78
2022/08/05 13:04:34;;;;;;;1.50;0.80;;;;;;;;;;5050690;27;97536;-78
2022/08/05 13:07:11;;;;;;;2.58;0.98;;;;;;;;;;5035403;27;96955;-78
2022/08/05 13:09:49;;;;;;;4.05;0.93;;;;;;;;;;5028096;28;97137;-78
2022/08/05 13:12:22;;;;;;;2.42;0.85;;;;;;;;;;5015121;28;95297;-77
2022/08/05 13:14:58;;;;;;;4.13;1.00;;;;;;;;;;5015412;28;96923;-77
2022/08/05 13:17:32;;;;;;;4.03;1.00;;;;;;;;;;5022536;28;97629;-77
2022/08/05 13:20:08;;;;;;;1.50;0.98;;;;;;;;;;5030197;28;95258;-78
2022/08/05 13:22:38;;;;;;;3.28;0.80;;;;;;;;;;5033664;27;96714;-77
2022/08/05 13:25:07;;;;;;;2.28;0.80;;;;;;;;;;5030522;28;97327;-77
2022/08/05 13:27:48;;;;;;;3.25;1.23;;;;;;;;;;5035543;27;95345;-77
2022/08/05 13:30:16;;;;;;;4.00;1.00;;;;;;;;;;5034118;27;97241;-77
2022/08/05 13:33:01;;;;;;;2.58;0.90;;;;;;;;;;5035033;28;95351;-78
2022/08/05 13:35:28;;;;;;;1.92;1.00;;;;;;;;;;5033502;28;96860;-78
2022/08/05 13:38:14;;;;;;;6.05;1.10;;;;;;;;;;5032277;27;99225;-78
2022/08/05 13:40:56;;;;;;;;;;;;;;;;;;5035171;27;95200;-78
2022/08/05 13:43:22;;;;;;;2.92;1.10;;;;;;;;;;5032979;28;127530;-78
2022/08/05 19:52:57;;;;;;;5.35;1.45;;;;;;;;;;4961247;27;4226065;-78
2022/08/05 19:55:35;;;;;;;7.10;2.50;;;;;;;;;;5089414;27;97454;-75
2022/08/05 19:58:21;;;;;;;8.75;1.58;;;;;;;;;;5086869;27;96900;-75
2022/08/05 20:00:55;;;;;;;2.95;1.38;;;;;;;;;;5086254;27;96862;-76
2022/08/05 20:03:23;;;;;;;6.07;1.40;;;;;;;;;;5087880;27;97615;-75
2022/08/05 20:05:55;;;;;;;6.72;1.70;;;;;;;;;;5088513;27;95300;-75
2022/08/05 20:08:21;;;;;;;3.33;1.20;;;;;;;;;;5089375;27;97069;-75
2022/08/05 20:10:50;;;;;;;4.60;1.30;;;;;;;;;;5089360;27;97562;-75
2022/08/05 20:13:19;;;;;;;4.28;1.25;;;;;;;;;;5092615;27;95766;-75
2022/08/05 20:16:09;;;;;;;5.60;1.60;;;;;;;;;;5082687;27;98855;-75
2022/08/05 20:18:35;;;;;;;3.40;1.30;;;;;;;;;;5087470;27;95477;-75
2022/08/05 20:21:03;;;;;;;8.85;1.52;;;;;;;;;;5089323;27;96793;-75
2022/08/05 20:23:32;;;;;;;6.03;1.40;;;;;;;;;;5089115;27;97649;-77
2022/08/05 20:26:20;;;;;;;6.50;1.50;;;;;;;;;;5088930;27;95488;-75
2022/08/05 20:28:49;;;;;;;9.20;1.95;;;;;;;;;;5089856;27;96658;-75
2022/08/05 20:31:17;;;;;;;8.00;1.42;;;;;;;;;;5086631;27;97556;-75
2022/08/05 20:34:02;;;;;;;6.78;1.35;;;;;;;;;;5087879;27;95692;-75
2022/08/05 20:36:29;;;;;;;4.55;1.50;;;;;;;;;;5087881;27;96736;-75
2022/08/05 20:38:57;;;;;;;5.10;1.60;;;;;;;;;;5089197;27;95271;-75
2022/08/05 20:41:27;;;;;;;3.22;1.10;;;;;;;;;;5087288;27;97033;-75
2022/08/05 20:44:10;;;;;;;9.23;1.98;;;;;;;;;;5088474;27;97565;-75
2022/08/05 20:46:54;;;;;;;5.60;1.50;;;;;;;;;;5084597;27;95306;-75
2022/08/05 20:49:21;;;;;;;5.75;1.70;;;;;;;;;;5089477;27;95791;-75
2022/08/05 20:51:51;;;;;;;6.07;1.60;;;;;;;;;;5088349;27;97344;-75
2022/08/05 20:54:19;;;;;;;4.78;1.67;;;;;;;;;;5085245;27;95372;-75
2022/08/05 20:56:46;;;;;;;4.45;1.60;;;;;;;;;;5087444;27;96794;-75
2022/08/05 20:59:14;;;;;;;5.18;1.67;;;;;;;;;;5087007;27;97597;-76
2022/08/05 21:02:00;;;;;;;7.78;1.70;;;;;;;;;;5085986;27;95978;-76
2022/08/05 21:04:31;;;;;;;7.93;3.22;;;;;;;;;;5075299;27;97612;-76
2022/08/05 21:07:04;;;;;;;8.45;3.15;;;;;;;;;;5074992;27;95333;-75
2022/08/05 21:09:37;;;;;;;5.67;2.50;;;;;;;;;;5075449;27;95784;-76
2022/08/05 21:12:19;;;;;;;5.28;2.03;;;;;;;;;;5074819;27;96106;-75
2022/08/05 21:14:51;;;;;;;;;;;;;;;;;;5074354;27;95469;-76
2022/08/05 21:17:18;;;;;;;6.22;1.48;;;;;;;;;;5066980;27;125313;-75
2022/08/05 21:19:56;;;;;;;5.15;1.50;;;;;;;;;;5072766;27;96366;-75
2022/08/05 21:22:24;;;;;;;6.55;1.73;;;;;;;;;;5078349;27;95368;-76
2022/08/05 21:25:06;;;;;;;7.28;1.50;;;;;;;;;;5075492;27;96296;-76
2022/08/05 21:27:32;;;;;;;6.28;1.33;;;;;;;;;;5074072;27;95479;-78
2022/08/05 21:30:04;;;;;;;4.15;1.48;;;;;;;;;;5075055;27;96844;-79
2022/08/05 21:32:33;;;;;;;5.90;1.50;;;;;;;;;;5072635;27;96068;-76
2022/08/05 21:35:00;;;;;;;7.38;1.40;;;;;;;;;;5074787;27;96926;-77
2022/08/05 21:37:47;;;;;;;6.63;1.42;;;;;;;;;;5068613;27;98412;-76
2022/08/05 21:40:19;;;;;;;5.93;1.55;;;;;;;;;;5073459;27;97345;-76
2022/08/05 21:42:45;;;;;;;5.60;1.40;;;;;;;;;;5073486;27;95674;-76
2022/08/05 21:45:14;;;;;;;5.80;1.27;;;;;;;;;;5076866;27;96818;-75
2022/08/05 21:47:52;;;;;;;5.10;1.30;;;;;;;;;;5059869;27;95339;-77
2022/08/05 21:50:23;;;;;;;7.22;1.50;;;;;;;;;;5074710;27;96153;-77
2022/08/05 21:52:50;;;;;;;8.55;2.30;;;;;;;;;;5074680;27;97703;-77
2022/08/05 21:55:17;;;;;;;4.53;1.80;;;;;;;;;;5072372;27;97444;-76
2022/08/05 21:58:04;;;;;;;7.05;1.83;;;;;;;;;;5073382;27;97869;-76
2022/08/05 22:00:31;;;;;;;8.73;2.17;;;;;;;;;;5063407;27;97278;-77
2022/08/05 22:02:57;;;;;;;6.25;1.65;;;;;;;;;;5054994;27;95549;-76
2022/08/05 22:05:23;;;;;;;6.88;1.90;;;;;;;;;;5071055;27;97181;-76
2022/08/05 22:07:52;;;;;;;12.07;2.13;;;;;;;;;;5076027;27;95361;-76
2022/08/05 22:10:24;;;;;;;;;;;;;;;;;;5074349;27;96919;-75
2022/08/05 22:12:53;;;;;;;6.32;1.65;;;;;;;;;;5070527;27;126769;-76
2022/08/05 22:15:19;;;;;;;7.55;1.50;;;;;;;;;;5066026;27;95365;-75
2022/08/05 22:18:06;;;;;;;5.13;1.95;;;;;;;;;;5070702;27;98050;-76
2022/08/05 22:20:36;;;;;;;7.25;1.98;;;;;;;;;;5071082;27;97367;-76
2022/08/05 22:28:55;;;;;;;9.73;2.25;;;;;;;;;;5068409;27;97240;-75
2022/08/05 22:31:21;;;;;;;8.20;1.88;;;;;;;;;;5067488;27;96651;-75
2022/08/05 22:33:49;;;;;;;5.03;1.52;;;;;;;;;;5054711;27;97298;-75
2022/08/05 22:36:26;;;;;;;6.13;1.63;;;;;;;;;;5071827;27;96533;-75
2022/08/05 22:38:54;;;;;;;4.18;1.63;;;;;;;;;;5068573;27;96733;-75
2022/08/05 22:41:21;;;;;;;4.00;1.90;;;;;;;;;;5066344;27;97359;-75
2022/08/05 22:44:07;;;;;;;4.82;1.85;;;;;;;;;;5072788;27;95323;-75
2022/08/05 22:46:34;;;;;;;3.45;1.40;;;;;;;;;;5073587;27;96750;-75
2022/08/05 22:49:06;;;;;;;6.97;1.77;;;;;;;;;;5073053;27;97133;-74
2022/08/05 22:51:38;;;;;;;6.63;1.83;;;;;;;;;;5074745;27;96348;-75
2022/08/05 22:54:24;;;;;;;4.72;1.70;;;;;;;;;;5073544;27;99025;-75
2022/08/05 22:56:53;;;;;;;6.22;1.92;;;;;;;;;;5064997;27;95377;-74
2022/08/05 22:59:20;;;;;;;4.65;1.88;;;;;;;;;;5065038;27;96809;-75
2022/08/05 23:02:06;;;;;;;8.98;1.90;;;;;;;;;;5065163;27;98734;-74
2022/08/05 23:04:33;;;;;;;7.65;1.70;;;;;;;;;;5072851;27;95320;-75
2022/08/05 23:07:01;;;;;;;6.13;2.38;;;;;;;;;;5073587;27;96636;-75
2022/08/05 23:09:28;;;;;;;7.43;1.88;;;;;;;;;;5064166;27;97409;-75
2022/08/05 23:12:16;;;;;;;12.00;2.00;;;;;;;;;;5061087;27;95256;-74
2022/08/05 23:14:43;;;;;;;11.40;2.60;;;;;;;;;;5064783;27;96639;-75
2022/08/05 23:17:22;;;;;;;4.18;1.60;;;;;;;;;;5073998;27;95368;-74
2022/08/05 23:19:58;;;;;;;3.85;1.48;;;;;;;;;;5068822;27;97385;-74
2022/08/05 23:22:25;;;;;;;8.18;1.80;;;;;;;;;;5072238;27;97271;-75
2022/08/05 23:24:53;;;;;;;9.77;1.95;;;;;;;;;;5071081;27;95458;-74
2022/08/05 23:27:19;;;;;;;6.50;1.80;;;;;;;;;;5064610;27;95764;-75
2022/08/05 23:29:48;;;;;;;5.18;1.58;;;;;;;;;;5063520;27;97816;-75
2022/08/05 23:32:15;;;;;;;4.72;1.92;;;;;;;;;;5073562;27;95375;-74
2022/08/05 23:34:48;;;;;;;5.47;1.92;;;;;;;;;;5072696;27;96969;-76
2022/08/05 23:37:15;;;;;;;6.80;2.00;;;;;;;;;;5075629;27;97340;-77
2022/08/05 23:39:42;;;;;;;5.35;2.10;;;;;;;;;;5069836;27;96853;-76
2022/08/05 23:42:20;;;;;;;11.07;2.00;;;;;;;;;;5072508;27;97148;-76
2022/08/05 23:44:55;;;;;;;10.15;2.20;;;;;;;;;;5073695;27;95313;-74
2022/08/05 23:47:21;;;;;;;4.63;1.92;;;;;;;;;;5072988;27;96766;-76
2022/08/05 23:49:50;;;;;;;6.75;3.45;;;;;;;;;;5068851;27;97614;-76
2022/08/05 23:52:28;;;;;;;6.75;2.22;;;;;;;;;;5067497;27;97571;-74
2022/08/05 23:54:58;;;;;;;6.63;2.08;;;;;;;;;;5055703;27;96890;-73
2022/08/05 23:57:25;;;;;;;7.90;2.50;;;;;;;;;;5056673;27;97400;-73
2022/08/05 23:59:53;;;;;;;10.02;3.03;;;;;;;;;;5059487;27;95217;-74
